Time;durP1;ratioP1;P1;durP2;ratioP2;P2;SDS_P1;SDS_P2;PMS_P1;PMS_P2;Temp;Humidity;BMP_temperature;BMP_pressure;BME280_temperature;BME280_humidity;BME280_pressure;Samples;Min_cycle;Max_cycle;Signal;HPM_P1;HPM_P2
2021/07/12 05:08:18;;;;;;;45.47;22.02;;;;;;;17.09;91.90;99909.34;5006160;28;105911;-70
2021/07/12 05:10:43;;;;;;;42.55;21.00;;;;;;;17.16;91.80;99914.69;5006527;28;106037;-71
2021/07/12 05:13:09;;;;;;;38.53;19.30;;;;;;;17.25;91.71;99918.75;5003927;28;105782;-70
2021/07/12 05:15:34;;;;;;;40.70;21.23;;;;;;;17.34;91.62;99913.09;5002489;28;107149;-69
2021/07/12 05:18:00;;;;;;;37.75;20.73;;;;;;;17.42;91.57;99918.19;4983870;28;106134;-69
2021/07/12 05:20:25;;;;;;;45.75;22.17;;;;;;;17.53;91.75;99925.53;4985627;28;105866;-68
2021/07/12 05:22:50;;;;;;;47.25;24.48;;;;;;;17.63;91.37;99927.69;4984829;28;105970;-69
2021/07/12 05:25:16;;;;;;;66.72;35.75;;;;;;;17.74;91.53;99931.53;4984141;28;105979;-69
2021/07/12 05:27:41;;;;;;;72.97;36.80;;;;;;;17.83;91.17;99934.75;4984338;28;106022;-71
2021/07/12 05:30:07;;;;;;;54.03;29.00;;;;;;;17.91;91.46;99927.22;4983837;28;105973;-70
2021/07/12 05:32:32;;;;;;;37.13;22.25;;;;;;;18.00;91.35;99925.06;4984772;28;106954;-69
2021/07/12 05:34:58;;;;;;;36.97;22.80;;;;;;;18.13;91.31;99924.06;4984461;28;106886;-68
2021/07/12 05:37:23;;;;;;;37.53;21.70;;;;;;;18.24;91.41;99928.69;4984204;28;106139;-68
2021/07/12 05:39:48;;;;;;;34.25;19.98;;;;;;;18.39;91.48;99930.16;4984977;28;106086;-68
2021/07/12 05:42:14;;;;;;;32.17;19.17;;;;;;;18.52;91.39;99935.38;4984427;28;106203;-68
2021/07/12 05:44:39;;;;;;;33.80;20.23;;;;;;;18.60;91.30;99940.47;4984297;28;105898;-68
2021/07/12 05:47:05;;;;;;;33.25;19.05;;;;;;;18.61;91.10;99936.69;4984266;28;105905;-68
2021/07/12 05:49:30;;;;;;;32.53;18.30;;;;;;;18.60;90.99;99940.47;4982999;28;106022;-69
2021/07/12 05:51:55;;;;;;;29.02;19.90;;;;;;;18.57;90.91;99940.91;4984266;28;106609;-69
2021/07/12 05:54:21;;;;;;;27.67;19.25;;;;;;;18.55;90.84;99948.41;4986260;28;105972;-71
2021/07/12 05:56:46;;;;;;;29.30;19.27;;;;;;;18.56;90.82;99957.31;4982798;28;106048;-68
2021/07/12 05:59:11;;;;;;;32.85;20.38;;;;;;;18.56;91.16;99963.53;4982237;28;106160;-71
2021/07/12 06:01:37;;;;;;;29.17;18.38;;;;;;;18.59;90.97;99959.56;4984111;28;105968;-71
2021/07/12 06:04:02;;;;;;;30.52;19.33;;;;;;;18.58;90.93;99960.63;4983735;28;106627;-70
2021/07/12 06:06:27;;;;;;;31.35;19.67;;;;;;;18.57;90.66;99964.34;4983165;28;106478;-70
2021/07/12 06:08:53;;;;;;;33.20;21.85;;;;;;;18.59;90.79;99965.78;4984618;28;105758;-69
2021/07/12 06:11:18;;;;;;;28.80;18.67;;;;;;;18.61;90.82;99970.94;4983885;28;106672;-75
2021/07/12 06:13:43;;;;;;;33.97;20.50;;;;;;;18.57;90.80;99967.88;4954719;28;106269;-71
2021/07/12 06:16:10;;;;;;;33.92;22.27;;;;;;;18.61;90.97;99966.34;4977591;28;107023;-70
2021/07/12 06:18:36;;;;;;;31.25;21.30;;;;;;;18.65;90.78;99974.00;4956903;28;106144;-71
2021/07/12 06:21:01;;;;;;;31.92;21.25;;;;;;;18.63;90.51;99976.09;4950789;28;105990;-73
2021/07/12 06:23:26;;;;;;;33.75;23.00;;;;;;;18.61;90.64;99973.63;4950933;28;106483;-75
2021/07/12 06:25:52;;;;;;;38.85;24.90;;;;;;;18.63;90.87;99981.50;4950403;28;106401;-73
2021/07/12 06:28:17;;;;;;;38.45;22.90;;;;;;;18.67;90.90;99983.53;4951329;28;105887;-71
2021/07/12 06:30:42;;;;;;;38.47;23.85;;;;;;;18.69;90.80;99969.81;4950912;28;105920;-72
2021/07/12 06:33:08;;;;;;;41.47;24.15;;;;;;;18.73;91.05;99979.09;4950756;28;106001;-72
2021/07/12 06:35:34;;;;;;;39.25;24.20;;;;;;;18.70;90.71;99974.97;4950536;28;108806;-72
2021/07/12 06:37:59;;;;;;;42.65;22.63;;;;;;;18.71;90.82;99973.94;4951260;28;106050;-73
2021/07/12 06:40:25;;;;;;;35.05;22.55;;;;;;;18.68;90.64;99973.56;4950943;28;106365;-73
2021/07/12 06:42:50;;;;;;;36.97;22.23;;;;;;;18.61;90.61;99981.72;4950330;28;105793;-73
2021/07/12 06:45:15;;;;;;;38.75;24.65;;;;;;;18.55;90.58;99978.06;4950439;28;105895;-73
2021/07/12 06:47:41;;;;;;;34.28;21.10;;;;;;;18.55;90.65;99972.69;4950936;28;105970;-74
2021/07/12 06:50:07;;;;;;;32.53;18.45;;;;;;;18.53;90.55;99965.88;4950749;28;105870;-74
2021/07/12 06:52:32;;;;;;;31.20;19.30;;;;;;;18.52;90.71;99972.31;4950236;28;105977;-70
2021/07/12 06:54:58;;;;;;;31.48;18.42;;;;;;;18.49;90.66;99976.28;4950263;28;106092;-71
2021/07/12 06:57:23;;;;;;;28.92;17.42;;;;;;;18.41;90.63;99974.75;4950872;28;106153;-72
2021/07/12 06:59:52;;;;;;;24.83;16.85;;;;;;;18.37;90.96;99972.69;4950324;28;106153;-74
2021/07/12 07:02:17;;;;;;;26.63;17.67;;;;;;;18.34;90.46;99975.88;4949668;28;106616;-73
2021/07/12 07:04:43;;;;;;;22.60;15.68;;;;;;;18.33;90.87;99971.50;4949546;28;106050;-75
2021/07/12 07:07:08;;;;;;;28.27;17.05;;;;;;;18.29;90.73;99963.06;4950050;28;106010;-74
2021/07/12 07:09:34;;;;;;;28.67;17.90;;;;;;;18.31;90.85;99968.22;4950650;28;105856;-72
2021/07/12 07:11:59;;;;;;;27.33;18.25;;;;;;;18.33;90.97;99966.13;4949818;28;105859;-73
2021/07/12 07:14:24;;;;;;;30.40;18.80;;;;;;;18.36;90.84;99960.28;4949985;28;105926;-76
2021/07/12 07:16:50;;;;;;;38.08;21.88;;;;;;;18.41;90.99;99969.34;4950640;28;106250;-71
2021/07/12 07:19:15;;;;;;;35.85;21.98;;;;;;;18.47;91.05;99967.59;4950212;28;106147;-71
2021/07/12 07:21:41;;;;;;;50.72;29.02;;;;;;;18.52;91.02;99964.22;4949525;28;106070;-71
2021/07/12 07:24:06;;;;;;;55.90;30.75;;;;;;;18.56;90.82;99971.63;4949847;28;106113;-71
2021/07/12 07:26:31;;;;;;;51.38;30.15;;;;;;;18.60;90.81;99962.03;4950040;28;106368;-70
2021/07/12 07:28:57;;;;;;;51.28;29.02;;;;;;;18.68;90.94;99957.38;4949786;28;106228;-72
2021/07/12 07:31:23;;;;;;;52.03;32.20;;;;;;;18.76;91.20;99965.13;4948593;28;105903;-69
2021/07/12 07:33:48;;;;;;;50.13;30.10;;;;;;;18.83;91.01;99957.75;4949543;28;106632;-69
2021/07/12 07:36:14;;;;;;;46.47;31.52;;;;;;;18.94;90.90;99972.38;4950041;28;106090;-69
2021/07/12 07:38:39;;;;;;;46.55;29.20;;;;;;;18.98;90.85;99978.94;4949544;28;106324;-70
2021/07/12 07:41:04;;;;;;;32.97;20.15;;;;;;;18.99;90.67;99979.78;4948707;28;106704;-72
2021/07/12 07:43:30;;;;;;;33.47;23.10;;;;;;;19.00;90.76;99981.41;4948737;28;106047;-71
2021/07/12 07:45:55;;;;;;;31.52;18.80;;;;;;;18.99;90.49;99985.19;4949853;28;106055;-71
2021/07/12 07:48:21;;;;;;;21.33;16.15;;;;;;;18.97;90.49;99987.28;4948891;28;106138;-69
2021/07/12 07:50:46;;;;;;;25.55;17.95;;;;;;;18.97;90.39;99987.28;4943523;28;106928;-68
2021/07/12 07:53:12;;;;;;;25.77;17.77;;;;;;;19.02;90.43;99995.50;4949547;28;106265;-74
2021/07/12 07:55:37;;;;;;;22.52;15.00;;;;;;;19.09;90.56;99999.75;4949622;28;105900;-72
2021/07/12 07:58:05;;;;;;;18.00;13.82;;;;;;;19.09;90.34;100001.63;4949795;28;106143;-71
2021/07/12 08:00:30;;;;;;;18.65;15.25;;;;;;;19.10;90.37;99995.19;4949109;28;106616;-71
2021/07/12 08:02:56;;;;;;;20.95;15.90;;;;;;;19.13;90.42;99997.41;4947956;28;108367;-72
2021/07/12 08:05:21;;;;;;;24.95;17.67;;;;;;;19.17;90.53;100000.47;4950076;28;106015;-71
2021/07/12 08:07:47;;;;;;;24.40;18.25;;;;;;;19.18;90.31;99997.53;4949113;28;106128;-75
2021/07/12 08:10:15;;;;;;;30.80;19.73;;;;;;;19.33;90.68;99985.47;4948725;28;106038;-74
2021/07/12 08:12:42;;;;;;;24.65;16.45;;;;;;;19.49;90.51;99984.78;4934149;28;107208;-76
2021/07/12 08:15:09;;;;;;;27.40;18.88;;;;;;;19.66;90.73;99984.09;4930401;28;105956;-74
2021/07/12 08:17:35;;;;;;;24.38;17.10;;;;;;;19.81;90.74;99995.28;4929879;28;106363;-69
2021/07/12 08:20:00;;;;;;;22.92;18.20;;;;;;;19.89;90.02;99973.28;4929359;28;105957;-72
2021/07/12 08:22:26;;;;;;;26.00;19.30;;;;;;;20.03;90.25;99970.31;4943404;28;107663;-71
2021/07/12 08:24:51;;;;;;;21.73;17.92;;;;;;;20.21;90.64;99974.75;4949544;28;106445;-72
2021/07/12 08:27:17;;;;;;;19.02;14.85;;;;;;;20.35;90.35;99972.59;4949089;28;106303;-71
2021/07/12 08:29:42;;;;;;;19.13;14.45;;;;;;;20.43;89.98;99983.03;4948553;28;106013;-72
2021/07/12 08:32:07;;;;;;;13.85;11.90;;;;;;;20.45;89.46;99975.50;4948655;28;106221;-72
2021/07/12 08:34:40;;;;;;;14.25;11.38;;;;;;;20.41;89.36;99980.56;4949637;28;105979;-69
2021/07/12 08:37:05;;;;;;;16.20;12.50;;;;;;;20.40;89.46;99994.34;4949272;28;106240;-75
2021/07/12 08:39:31;;;;;;;16.20;13.43;;;;;;;20.35;89.43;99997.75;4948608;28;106720;-74
2021/07/12 08:41:58;;;;;;;15.45;12.88;;;;;;;20.34;89.39;100000.69;4947644;28;106150;-72
2021/07/12 08:44:23;;;;;;;13.57;11.82;;;;;;;20.26;89.01;99999.19;4949155;28;105851;-69
2021/07/12 08:46:49;;;;;;;17.23;13.82;;;;;;;20.20;88.79;100000.13;4948652;28;105776;-70
2021/07/12 08:49:14;;;;;;;12.85;11.27;;;;;;;20.19;89.03;99995.78;4948429;28;105917;-72
2021/07/12 08:51:41;;;;;;;16.52;13.00;;;;;;;20.31;89.19;99995.75;4947859;28;106004;-72
2021/07/12 08:54:07;;;;;;;17.20;14.77;;;;;;;20.66;90.00;99986.72;4948798;28;105967;-70
2021/07/12 08:56:32;;;;;;;15.88;13.55;;;;;;;21.06;89.95;99989.34;4947529;28;106278;-71
2021/07/12 08:58:57;;;;;;;16.35;12.80;;;;;;;21.39;89.68;99995.03;4947545;28;106813;-73
2021/07/12 09:01:23;;;;;;;15.18;12.75;;;;;;;21.64;89.37;99987.31;4947594;28;105895;-71
2021/07/12 09:03:51;;;;;;;15.25;12.57;;;;;;;21.79;88.63;99977.78;4948278;28;106341;-73
2021/07/12 09:06:21;;;;;;;16.52;13.65;;;;;;;22.01;88.77;99990.50;4947388;28;106153;-73
2021/07/12 09:08:52;;;;;;;15.93;13.57;;;;;;;22.18;88.65;99979.63;4944688;28;106100;-71
2021/07/12 09:11:25;;;;;;;13.93;12.48;;;;;;;22.25;88.28;99972.94;4947340;28;105796;-71
2021/07/12 09:13:56;;;;;;;11.60;10.40;;;;;;;22.37;87.99;99972.00;4947633;28;106149;-70
2021/07/12 09:16:29;;;;;;;11.52;10.32;;;;;;;22.58;87.99;99968.47;4945763;28;106294;-70
2021/07/12 09:19:13;;;;;;;10.27;8.25;;;;;;;22.64;87.16;99988.31;4947385;28;106906;-70
2021/07/12 09:21:46;;;;;;;9.23;7.65;;;;;;;22.76;86.47;99975.41;4947599;28;106555;-71
2021/07/12 09:24:18;;;;;;;12.75;9.57;;;;;;;22.96;85.93;99966.66;4948205;28;105862;-73
2021/07/12 09:27:05;;;;;;;10.52;9.30;;;;;;;23.44;86.84;99963.22;4945371;28;106146;-71
2021/07/12 09:29:36;;;;;;;11.18;9.20;;;;;;;23.83;86.36;99965.66;4945840;28;106698;-68
2021/07/12 09:32:08;;;;;;;8.88;7.80;;;;;;;24.08;84.83;99964.97;4947113;28;106998;-75
2021/07/12 09:34:35;;;;;;;10.52;7.10;;;;;;;24.28;84.18;99966.97;4946818;28;106697;-69
2021/07/12 09:37:00;;;;;;;7.13;6.43;;;;;;;24.41;83.51;99964.81;4947387;28;106345;-67
2021/07/12 09:39:37;;;;;;;8.20;5.68;;;;;;;24.43;83.49;99966.19;4947432;28;106569;-68
2021/07/12 09:42:11;;;;;;;7.65;5.75;;;;;;;24.56;82.10;99966.75;4944204;28;106095;-70
2021/07/12 09:44:43;;;;;;;6.43;5.55;;;;;;;24.41;81.61;99960.22;4948795;28;106077;-70
2021/07/12 09:47:19;;;;;;;7.70;5.60;;;;;;;24.19;81.61;99971.28;4948070;28;106159;-70
2021/07/12 09:49:45;;;;;;;6.88;5.95;;;;;;;24.25;82.50;99970.22;4947240;28;106038;-69
2021/07/12 09:52:15;;;;;;;9.40;7.38;;;;;;;24.61;82.54;99961.34;4947343;28;106548;-68
2021/07/12 09:54:42;;;;;;;8.27;6.75;;;;;;;24.83;82.32;99958.41;4948380;28;106180;-69
2021/07/12 09:57:14;;;;;;;7.82;6.47;;;;;;;24.89;81.98;99959.22;4951000;28;106185;-71
2021/07/12 09:59:52;;;;;;;8.05;5.38;;;;;;;24.94;80.63;99960.03;4940465;28;106252;-71
2021/07/12 10:02:21;;;;;;;5.38;4.20;;;;;;;24.91;79.41;99968.75;4948112;28;106161;-69
2021/07/12 10:04:47;;;;;;;8.23;4.53;;;;;;;24.74;78.41;99958.13;4951786;28;105986;-69
2021/07/12 10:07:13;;;;;;;6.03;5.13;;;;;;;24.92;79.31;99970.41;4939439;28;106100;-72
2021/07/12 10:09:38;;;;;;;5.78;4.68;;;;;;;25.29;78.80;99955.66;4942331;28;107128;-70
2021/07/12 10:12:05;;;;;;;8.98;5.95;;;;;;;25.35;78.63;99961.97;4943281;28;106170;-71
2021/07/12 10:14:31;;;;;;;5.95;4.07;;;;;;;25.20;77.24;99954.59;4940494;28;106095;-68
2021/07/12 10:16:56;;;;;;;8.52;4.82;;;;;;;25.15;78.63;99947.25;4947649;28;106208;-72
2021/07/12 10:19:21;;;;;;;7.43;5.45;;;;;;;25.00;77.89;99953.50;4950905;28;106275;-70
2021/07/12 10:21:48;;;;;;;5.93;4.68;;;;;;;25.04;77.79;99944.78;4949666;28;106442;-69
2021/07/12 10:24:15;;;;;;;5.82;4.47;;;;;;;25.19;78.12;99936.59;4950915;28;105939;-71
2021/07/12 10:26:46;;;;;;;5.82;4.15;;;;;;;25.38;76.71;99941.50;4950023;28;106261;-70
2021/07/12 10:29:13;;;;;;;5.38;4.55;;;;;;;25.18;75.44;99941.22;4939643;28;105992;-70
2021/07/12 10:31:55;;;;;;;4.40;3.88;;;;;;;25.12;76.90;99936.06;4950250;28;105757;-70
2021/07/12 10:34:30;;;;;;;5.18;3.97;;;;;;;25.16;76.85;99932.53;4951417;28;106089;-75
2021/07/12 10:37:00;;;;;;;5.70;4.78;;;;;;;25.03;75.10;99932.25;4934146;28;106083;-77
2021/07/12 10:40:00;;;;;;;6.20;4.85;;;;;;;25.36;77.40;99930.06;4931197;28;106105;-80
2021/07/12 10:42:43;;;;;;;4.68;3.90;;;;;;;25.65;77.51;99927.53;4943798;28;106010;-75
2021/07/12 10:45:34;;;;;;;4.78;3.60;;;;;;;25.77;75.52;99924.53;4951461;28;105982;-74
2021/07/12 10:48:01;;;;;;;4.32;3.45;;;;;;;25.67;73.71;99923.44;4950483;28;105990;-75
2021/07/12 10:50:38;;;;;;;4.70;3.65;;;;;;;25.70;74.94;99923.97;4949814;28;106110;-74
2021/07/12 10:53:23;;;;;;;4.20;3.40;;;;;;;25.50;74.49;99923.75;4950107;28;106424;-75
2021/07/12 10:55:57;;;;;;;4.55;3.35;;;;;;;25.32;74.21;99922.41;4953745;28;106173;-76
2021/07/12 10:58:26;;;;;;;4.35;3.50;;;;;;;25.31;73.33;99928.13;4950647;28;106253;-74
2021/07/12 11:00:57;;;;;;;3.90;3.47;;;;;;;25.24;73.54;99920.22;4950141;28;105988;-77
2021/07/12 11:03:44;;;;;;;3.83;3.20;;;;;;;25.38;74.43;99916.97;4938582;28;108082;-74
2021/07/12 11:06:51;;;;;;;5.40;3.28;;;;;;;25.78;74.06;99910.59;4950102;28;106202;-73
2021/07/12 11:09:54;;;;;;;4.25;3.30;;;;;;;25.84;71.11;99911.38;4949297;28;106338;-73
2021/07/12 11:12:31;;;;;;;4.53;3.53;;;;;;;25.70;70.21;99913.91;4949651;28;106631;-74
2021/07/12 11:15:16;;;;;;;4.75;3.30;;;;;;;25.63;70.51;99911.47;4950206;28;105713;-75
2021/07/12 11:17:52;;;;;;;8.45;4.05;;;;;;;25.51;70.23;99911.75;4949977;28;106058;-74
2021/07/12 11:20:56;;;;;;;5.85;2.97;;;;;;;25.49;70.48;99905.78;4949583;28;106092;-72
2021/07/12 11:23:43;;;;;;;4.95;3.35;;;;;;;25.60;70.29;99901.13;4948688;28;106102;-73
2021/07/12 11:26:24;;;;;;;6.75;3.50;;;;;;;25.98;70.19;99908.88;4949674;28;105855;-74
2021/07/12 11:28:58;;;;;;;4.00;3.22;;;;;;;26.08;67.86;99897.94;4950445;28;105945;-72
2021/07/12 11:31:45;;;;;;;3.42;2.80;;;;;;;26.00;67.59;99907.50;4950130;28;106232;-69
2021/07/12 11:34:31;;;;;;;3.97;3.00;;;;;;;26.06;67.03;99900.13;4949510;28;106531;-70
2021/07/12 11:37:09;;;;;;;3.50;2.85;;;;;;;26.32;66.72;99900.78;4949716;28;105931;-72
2021/07/12 11:39:50;;;;;;;4.32;3.05;;;;;;;26.71;65.83;99893.75;4949995;28;106078;-74
2021/07/12 11:42:20;;;;;;;3.03;2.72;;;;;;;27.17;63.49;99887.03;4949960;28;106272;-73
2021/07/12 11:44:46;;;;;;;6.72;2.90;;;;;;;27.44;61.61;99894.72;4949679;28;105899;-76
2021/07/12 11:47:34;;;;;;;2.70;2.38;;;;;;;27.31;60.84;99890.72;4949461;28;105994;-70
2021/07/12 11:50:11;;;;;;;4.10;2.67;;;;;;;27.28;60.49;99885.03;4950450;28;105976;-69
2021/07/12 11:52:39;;;;;;;5.78;2.45;;;;;;;27.61;59.63;99883.34;4949783;28;105937;-69
2021/07/12 11:55:13;;;;;;;2.90;2.45;;;;;;;27.70;59.13;99880.75;4948573;28;106007;-76
2021/07/12 11:57:40;;;;;;;2.88;2.42;;;;;;;27.63;57.89;99866.63;4948879;28;106043;-71
2021/07/12 12:00:09;;;;;;;3.47;2.53;;;;;;;27.92;56.76;99865.69;4949558;28;106294;-74
2021/07/12 12:02:35;;;;;;;3.35;2.42;;;;;;;28.14;56.38;99868.69;4948176;28;106256;-78
2021/07/12 12:05:02;;;;;;;2.97;2.20;;;;;;;28.06;55.65;99857.59;4949615;28;106546;-72
2021/07/12 12:07:37;;;;;;;3.65;2.10;;;;;;;28.15;56.59;99851.16;4948768;28;105926;-75
2021/07/12 12:10:02;;;;;;;2.88;2.33;;;;;;;28.15;53.90;99853.09;4950014;28;106312;-72
2021/07/12 12:12:38;;;;;;;6.47;2.60;;;;;;;28.02;53.64;99855.47;4948917;28;106456;-73
2021/07/12 12:15:16;;;;;;;2.95;2.33;;;;;;;28.10;53.87;99847.69;4949630;28;106363;-73
2021/07/12 12:17:48;;;;;;;2.17;1.92;;;;;;;28.26;52.85;99860.03;4947669;28;106107;-75
2021/07/12 12:20:18;;;;;;;3.20;2.03;;;;;;;28.26;51.71;99865.50;4949377;28;106528;-73
2021/07/12 12:23:05;;;;;;;2.30;1.92;;;;;;;28.28;51.57;99860.56;4948358;28;106266;-74
2021/07/12 12:25:44;;;;;;;2.65;2.08;;;;;;;28.34;50.52;99856.63;4948094;28;106874;-75
2021/07/12 12:28:30;;;;;;;4.60;2.50;;;;;;;28.49;50.34;99844.63;4939740;28;106329;-73
2021/07/12 12:30:59;;;;;;;4.25;2.33;;;;;;;28.75;49.49;99837.94;4936705;28;106355;-77
2021/07/12 12:33:30;;;;;;;5.13;2.65;;;;;;;29.13;48.72;99840.53;4936544;28;106600;-74
2021/07/12 12:36:01;;;;;;;3.85;2.20;;;;;;;29.07;48.72;99839.81;4936837;28;105830;-75
2021/07/12 12:38:27;;;;;;;2.97;2.42;;;;;;;29.27;48.25;99838.66;4940982;28;106633;-75
2021/07/12 12:41:02;;;;;;;2.95;2.25;;;;;;;29.34;48.05;99833.56;4939579;28;106450;-77
2021/07/12 12:43:28;;;;;;;4.63;2.45;;;;;;;29.51;47.37;99834.88;4946221;28;105993;-75
2021/07/12 12:45:58;;;;;;;3.22;2.40;;;;;;;29.57;46.37;99836.41;4948712;28;105999;-71
2021/07/12 12:48:34;;;;;;;2.90;2.20;;;;;;;29.55;46.24;99833.13;4946854;28;107119;-72
2021/07/12 12:51:19;;;;;;;3.90;2.20;;;;;;;29.73;46.04;99834.16;4949458;28;105953;-76
2021/07/12 12:53:44;;;;;;;2.85;2.33;;;;;;;29.92;45.18;99831.28;4949619;28;105859;-76
2021/07/12 12:56:10;;;;;;;3.63;2.28;;;;;;;29.97;44.61;99831.16;4949472;28;105998;-86
2021/07/12 12:58:35;;;;;;;3.72;2.17;;;;;;;29.69;44.39;99822.97;4948388;28;106788;-75
2021/07/12 13:01:09;;;;;;;4.55;2.20;;;;;;;29.55;43.97;99805.69;4950166;28;105992;-76
2021/07/12 13:03:34;;;;;;;2.78;2.05;;;;;;;29.35;44.38;99813.25;4948815;28;105959;-74
2021/07/12 13:06:03;;;;;;;2.28;1.88;;;;;;;29.27;44.39;99804.94;4948351;28;105968;-69
2021/07/12 13:08:29;;;;;;;5.32;2.42;;;;;;;29.34;44.45;99797.91;4947007;28;106032;-72
2021/07/12 13:11:02;;;;;;;4.88;2.30;;;;;;;29.20;44.44;99800.63;4945748;28;106037;-73
2021/07/12 13:13:29;;;;;;;5.30;2.50;;;;;;;29.02;44.70;99804.28;4946754;28;106185;-74
2021/07/12 13:16:10;;;;;;;3.85;2.40;;;;;;;28.80;45.04;99800.28;4946756;28;106601;-73
2021/07/12 13:18:35;;;;;;;3.90;2.30;;;;;;;28.68;45.45;99797.22;4946800;28;106138;-72
2021/07/12 13:21:00;;;;;;;2.40;2.05;;;;;;;28.44;45.51;99800.06;4946143;28;106415;-72
2021/07/12 13:23:27;;;;;;;8.60;3.10;;;;;;;28.34;45.37;99796.38;4947226;28;106379;-73
2021/07/12 13:26:04;;;;;;;5.15;2.45;;;;;;;28.33;45.93;99786.50;4946689;28;106142;-70
2021/07/12 13:28:29;;;;;;;3.67;2.28;;;;;;;28.22;45.57;99784.25;4928689;28;106480;-72
2021/07/12 13:30:55;;;;;;;4.30;2.28;;;;;;;28.08;46.46;99779.53;4931942;28;106408;-72
2021/07/12 13:33:21;;;;;;;2.33;1.92;;;;;;;28.14;46.25;99785.75;4930832;28;105899;-76
2021/07/12 13:35:47;;;;;;;3.17;2.28;;;;;;;27.93;45.74;99779.75;4930279;28;106257;-70
2021/07/12 13:38:18;;;;;;;3.05;2.20;;;;;;;27.66;46.33;99782.00;4930483;28;106196;-70
2021/07/12 13:40:44;;;;;;;9.82;2.38;;;;;;;27.69;46.04;99770.50;4931011;28;106300;-71
2021/07/12 13:43:10;;;;;;;2.28;2.08;;;;;;;27.89;46.62;99771.31;4929790;28;106536;-71
2021/07/12 13:45:36;;;;;;;3.88;2.45;;;;;;;28.03;46.42;99763.19;4930083;28;106139;-70
2021/07/12 13:48:02;;;;;;;3.78;2.25;;;;;;;28.09;46.28;99756.53;4930589;28;106408;-70
2021/07/12 13:50:29;;;;;;;3.40;2.30;;;;;;;28.13;46.31;99751.25;4931003;28;106146;-71
2021/07/12 13:53:00;;;;;;;3.30;2.10;;;;;;;28.03;45.76;99746.75;4930945;28;106511;-72
2021/07/12 13:55:28;;;;;;;2.42;2.10;;;;;;;28.03;45.92;99755.81;4930209;28;110750;-75
2021/07/12 13:57:56;;;;;;;2.35;2.00;;;;;;;27.87;45.25;99759.81;4929965;28;106134;-71
2021/07/12 14:00:27;;;;;;;2.70;2.17;;;;;;;27.86;45.54;99752.75;4931164;28;106096;-71
2021/07/12 14:02:53;;;;;;;3.13;2.38;;;;;;;27.98;45.78;99750.38;4930416;28;106844;-73
2021/07/12 14:05:20;;;;;;;2.72;2.42;;;;;;;28.25;45.68;99748.06;4930363;28;106003;-72
2021/07/12 14:07:46;;;;;;;4.63;2.50;;;;;;;28.37;45.58;99757.41;4929535;28;106425;-72
2021/07/12 14:10:15;;;;;;;6.45;2.47;;;;;;;28.61;45.77;99750.16;4930748;28;106009;-71
2021/07/12 14:12:42;;;;;;;2.80;2.33;;;;;;;28.74;45.10;99748.59;4930251;28;106525;-72
2021/07/12 14:15:11;;;;;;;5.00;2.72;;;;;;;28.52;45.34;99748.13;4928716;28;107634;-71
2021/07/12 14:17:37;;;;;;;3.45;2.45;;;;;;;28.36;45.61;99746.75;4929797;28;106375;-70
2021/07/12 14:20:04;;;;;;;2.90;2.30;;;;;;;28.13;45.67;99751.25;4931229;28;106262;-71
2021/07/12 14:22:30;;;;;;;3.72;2.60;;;;;;;27.93;46.19;99750.44;4929008;28;106240;-71
2021/07/12 14:24:56;;;;;;;4.30;2.45;;;;;;;27.82;46.55;99748.97;4930019;28;106131;-72
2021/07/12 14:27:21;;;;;;;4.10;2.67;;;;;;;27.67;46.93;99745.34;4929580;28;106101;-70
2021/07/12 14:29:47;;;;;;;3.67;2.60;;;;;;;27.58;47.04;99735.34;4930945;28;106224;-70
2021/07/12 14:32:13;;;;;;;5.25;2.85;;;;;;;27.40;47.29;99734.25;4930447;28;106150;-70
2021/07/12 14:34:40;;;;;;;3.95;2.50;;;;;;;27.31;47.95;99732.13;4929462;28;106023;-71
2021/07/12 14:37:05;;;;;;;4.40;2.90;;;;;;;27.39;47.94;99730.66;4935728;28;106067;-71
2021/07/12 14:39:31;;;;;;;4.82;2.65;;;;;;;27.49;48.32;99727.00;4948544;28;106402;-70
2021/07/12 16:45:41;;;;;;;4.07;3.60;;;;;;;24.91;53.57;99685.41;4985975;28;106120;-72
2021/07/12 16:48:06;;;;;;;5.80;3.15;;;;;;;24.91;53.97;99679.97;4985063;28;106016;-70
2021/07/12 16:50:31;;;;;;;5.53;3.13;;;;;;;24.94;54.33;99684.84;4984362;28;106353;-72
2021/07/12 16:52:57;;;;;;;5.18;3.85;;;;;;;24.95;54.52;99683.78;4984181;28;106219;-72
2021/07/12 16:55:23;;;;;;;6.68;3.85;;;;;;;24.96;54.70;99679.13;4984019;28;106025;-72
2021/07/12 16:57:48;;;;;;;5.88;3.50;;;;;;;24.97;54.81;99680.75;4983936;28;106120;-72
2021/07/12 17:00:14;;;;;;;4.65;3.47;;;;;;;24.96;54.90;99679.97;4984331;28;106160;-72
2021/07/12 17:02:39;;;;;;;4.97;3.35;;;;;;;24.97;55.14;99669.88;4983666;28;106361;-71
2021/07/12 17:05:06;;;;;;;6.38;3.72;;;;;;;24.97;55.21;99673.41;4983926;28;106579;-72
2021/07/12 17:07:31;;;;;;;3.80;2.85;;;;;;;24.98;55.26;99666.84;4984359;28;106146;-72
2021/07/12 17:09:57;;;;;;;6.38;3.72;;;;;;;25.02;54.98;99669.03;4983474;28;105877;-70
2021/07/12 17:12:22;;;;;;;6.22;3.42;;;;;;;25.03;55.20;99670.66;4983379;28;106055;-70
2021/07/12 17:14:48;;;;;;;5.45;3.53;;;;;;;25.04;55.37;99655.94;4983839;28;106030;-70
2021/07/12 17:17:14;;;;;;;6.38;3.72;;;;;;;25.05;55.37;99658.38;4983798;28;106070;-70
2021/07/12 17:19:40;;;;;;;5.40;3.85;;;;;;;25.07;55.55;99649.91;4982591;28;106283;-69
2021/07/12 17:22:05;;;;;;;6.20;3.67;;;;;;;25.06;55.23;99651.84;4983499;28;106468;-69
2021/07/12 17:24:31;;;;;;;7.18;3.70;;;;;;;25.03;55.37;99649.69;4983421;28;106308;-69
2021/07/12 17:26:56;;;;;;;5.07;3.53;;;;;;;24.99;55.44;99643.97;4984480;28;106108;-69
2021/07/12 17:29:21;;;;;;;6.55;3.65;;;;;;;24.97;55.47;99646.19;4983906;28;106226;-70
2021/07/12 17:31:47;;;;;;;6.30;3.80;;;;;;;24.91;55.39;99636.38;4983367;28;106074;-70
2021/07/12 17:34:12;;;;;;;5.97;3.50;;;;;;;24.87;55.46;99646.22;4983142;28;106058;-70
2021/07/12 17:36:37;;;;;;;6.97;3.65;;;;;;;24.84;55.61;99642.13;4969149;28;106202;-71
2021/07/12 17:39:05;;;;;;;3.92;3.35;;;;;;;24.82;55.75;99630.72;4978807;28;106171;-70
2021/07/12 17:41:31;;;;;;;5.75;3.83;;;;;;;24.77;55.86;99640.81;4983367;28;105946;-71
2021/07/12 17:43:56;;;;;;;7.60;3.33;;;;;;;24.76;56.04;99641.91;4982418;28;106323;-70
2021/07/12 17:46:21;;;;;;;5.25;3.97;;;;;;;24.75;56.23;99648.44;4984083;28;105889;-70
2021/07/12 17:48:48;;;;;;;5.28;4.78;;;;;;;24.71;56.33;99648.16;4983302;28;105870;-70
2021/07/12 17:51:14;;;;;;;6.57;3.60;;;;;;;24.67;56.32;99637.03;4982336;28;106831;-70
2021/07/12 17:53:41;;;;;;;5.38;3.53;;;;;;;24.63;56.23;99635.94;4982700;28;106546;-70
2021/07/12 17:56:07;;;;;;;4.65;3.22;;;;;;;24.58;56.43;99635.94;4975599;28;106040;-70
2021/07/12 17:58:33;;;;;;;4.88;3.90;;;;;;;24.56;56.73;99631.84;4969619;28;106382;-70
2021/07/12 18:01:00;;;;;;;4.90;3.65;;;;;;;24.52;56.74;99628.06;4969054;28;106189;-70
2021/07/12 18:03:26;;;;;;;10.00;4.28;;;;;;;24.47;56.87;99637.06;4969013;28;106399;-71
2021/07/12 18:05:52;;;;;;;4.75;3.90;;;;;;;24.44;57.27;99637.59;4970363;28;105923;-71
2021/07/12 18:08:17;;;;;;;7.55;4.50;;;;;;;24.42;57.34;99639.78;4970042;28;106018;-70
2021/07/12 18:10:42;;;;;;;5.53;4.30;;;;;;;24.39;57.54;99640.34;4969258;28;105984;-71
2021/07/12 18:13:08;;;;;;;5.80;3.88;;;;;;;24.36;57.39;99646.31;4968864;28;106087;-71
2021/07/12 18:15:33;;;;;;;4.72;3.85;;;;;;;24.32;58.01;99641.44;4969883;28;105968;-71
2021/07/12 18:17:59;;;;;;;5.78;4.53;;;;;;;24.31;58.11;99647.16;4969875;28;106319;-70
2021/07/12 18:20:24;;;;;;;7.70;4.18;;;;;;;24.27;58.12;99655.03;4969308;28;107174;-70
2021/07/12 18:22:49;;;;;;;6.82;4.22;;;;;;;24.25;58.26;99650.97;4969289;28;105950;-71
2021/07/12 18:25:15;;;;;;;5.97;4.20;;;;;;;24.22;58.59;99652.34;4969766;28;106022;-68
2021/07/12 18:27:40;;;;;;;4.65;3.97;;;;;;;24.17;58.84;99661.31;4967653;28;106004;-68
2021/07/12 18:30:08;;;;;;;9.13;4.10;;;;;;;24.13;58.88;99656.72;4969219;28;107162;-69
2021/07/12 18:32:34;;;;;;;5.93;3.90;;;;;;;24.08;59.03;99662.16;4969075;28;106356;-68
2021/07/12 18:34:59;;;;;;;8.20;4.40;;;;;;;24.02;59.42;99655.91;4970122;28;106068;-68
2021/07/12 18:37:24;;;;;;;6.53;4.80;;;;;;;23.95;59.31;99658.91;4969003;28;106159;-68